Time;durP1;ratioP1;P1;durP2;ratioP2;P2;SDS_P1;SDS_P2;PMS_P1;PMS_P2;Temp;Humidity;BMP_temperature;BMP_pressure;BME280_temperature;BME280_humidity;BME280_pressure;Samples;Min_cycle;Max_cycle;Signal;HPM_P1;HPM_P2
2023/06/03 00:00:25;;;;;;;7.80;6.00;;;;;;;12.63;85.56;95381.00;106736;1274;22699;-70
2023/06/03 00:03:13;;;;;;;10.50;6.20;;;;;;;12.54;85.51;95384.80;106754;1274;22656;-71
2023/06/03 00:05:42;;;;;;;7.80;5.80;;;;;;;12.55;86.14;95385.30;106783;1274;22762;-70
2023/06/03 00:08:10;;;;;;;8.70;5.80;;;;;;;12.56;85.71;95383.69;106751;1274;24203;-71
2023/06/03 00:10:38;;;;;;;9.30;5.80;;;;;;;12.55;85.56;95384.06;106724;1274;22779;-71
2023/06/03 00:13:06;;;;;;;8.90;5.70;;;;;;;12.54;85.64;95384.08;106690;1274;24261;-71
2023/06/03 00:15:35;;;;;;;8.30;6.20;;;;;;;12.59;85.67;95382.70;106737;1274;25315;-70
2023/06/03 00:18:04;;;;;;;7.40;5.20;;;;;;;12.58;85.42;95385.92;106787;1274;22511;-71
2023/06/03 00:20:36;;;;;;;7.40;5.20;;;;;;;12.56;85.11;95386.14;106762;1274;24354;-70
2023/06/03 00:23:05;;;;;;;7.20;5.30;;;;;;;12.51;85.24;95390.70;106707;1274;24244;-71
2023/06/03 00:25:34;;;;;;;9.80;5.40;;;;;;;12.45;85.30;95390.37;106745;1263;22704;-71
2023/06/03 00:28:03;;;;;;;9.10;5.40;;;;;;;12.43;85.24;95387.77;106702;1274;24267;-70
2023/06/03 00:30:31;;;;;;;6.80;5.20;;;;;;;12.44;85.21;95385.45;106713;1274;24215;-70
2023/06/03 00:33:00;;;;;;;8.60;5.30;;;;;;;12.40;85.05;95382.38;106801;1274;24186;-70
2023/06/03 00:35:29;;;;;;;7.30;5.50;;;;;;;12.35;85.17;95384.27;106793;1274;24266;-70
2023/06/03 00:37:57;;;;;;;8.10;5.10;;;;;;;12.32;86.07;95384.20;106817;1274;25440;-71
2023/06/03 00:40:25;;;;;;;6.90;5.00;;;;;;;12.32;85.80;95388.62;106746;1274;22997;-70
2023/06/03 00:42:54;;;;;;;6.80;5.30;;;;;;;12.25;85.33;95385.63;106779;1274;25213;-70
2023/06/03 00:45:22;;;;;;;9.70;4.90;;;;;;;12.24;85.63;95385.15;106767;1274;24259;-70
2023/06/03 00:47:51;;;;;;;7.60;4.90;;;;;;;12.18;85.32;95378.09;106671;1274;22696;-70
2023/06/03 00:50:20;;;;;;;8.80;4.90;;;;;;;12.17;85.68;95382.53;107096;1274;22455;-71
2023/06/03 00:52:51;;;;;;;6.20;4.80;;;;;;;12.15;86.23;95380.47;106784;1274;25220;-70
2023/06/03 00:55:20;;;;;;;7.00;5.20;;;;;;;12.11;85.68;95378.63;106774;1274;22504;-71
2023/06/03 00:57:50;;;;;;;7.40;5.50;;;;;;;12.10;85.64;95382.02;106718;1274;22511;-70
2023/06/03 01:00:18;;;;;;;7.00;5.20;;;;;;;12.14;86.59;95381.01;106788;1274;26464;-70
2023/06/03 01:02:47;;;;;;;9.80;5.60;;;;;;;12.22;86.56;95382.91;106771;1274;25516;-71
2023/06/03 01:05:16;;;;;;;10.60;5.90;;;;;;;12.26;86.46;95378.37;106699;1274;24756;-71
2023/06/03 01:08:00;;;;;;;9.60;5.40;;;;;;;12.29;86.77;95373.01;106829;1257;22511;-71
2023/06/03 01:10:55;;;;;;;8.40;5.00;;;;;;;12.31;87.11;95375.94;106742;1274;25389;-71
2023/06/03 01:13:38;;;;;;;7.10;5.30;;;;;;;12.28;86.36;95371.45;106690;1274;22775;-71
2023/06/03 01:16:09;;;;;;;7.10;5.40;;;;;;;12.30;86.81;95375.27;106720;1274;24336;-71
2023/06/03 01:18:38;;;;;;;12.70;6.00;;;;;;;12.39;87.83;95373.42;106743;1274;24372;-70
2023/06/03 01:21:07;;;;;;;8.80;5.30;;;;;;;12.48;87.71;95368.75;106801;1274;22638;-71
2023/06/03 01:23:36;;;;;;;6.50;5.40;;;;;;;12.50;87.23;95365.50;106779;1274;22598;-71
2023/06/03 01:26:04;;;;;;;8.50;5.50;;;;;;;12.54;87.28;95370.67;106777;1274;24260;-71
2023/06/03 01:28:34;;;;;;;13.30;6.50;;;;;;;12.62;87.69;95370.80;106775;1274;22514;-71
2023/06/03 01:31:05;;;;;;;7.70;5.40;;;;;;;12.71;87.35;95370.70;106777;1274;24220;-71
2023/06/03 01:33:35;;;;;;;9.10;5.40;;;;;;;12.76;87.47;95365.95;106688;1264;25319;-70
2023/06/03 01:36:05;;;;;;;7.90;5.10;;;;;;;12.80;87.40;95365.86;106798;1274;24234;-71
2023/06/03 01:38:34;;;;;;;6.90;5.40;;;;;;;12.76;87.21;95366.13;106637;1253;22636;-70
2023/06/03 01:41:04;;;;;;;8.10;6.00;;;;;;;12.73;87.30;95366.40;106784;1274;25291;-70
2023/06/03 01:43:34;;;;;;;8.90;5.70;;;;;;;12.73;87.08;95364.63;106786;1274;22524;-71
2023/06/03 01:46:03;;;;;;;9.90;5.50;;;;;;;12.74;87.14;95364.95;106789;1274;22518;-70
2023/06/03 01:48:33;;;;;;;10.40;5.60;;;;;;;12.78;87.31;95364.15;106824;1274;24380;-71
2023/06/03 01:51:02;;;;;;;8.00;5.50;;;;;;;12.77;86.70;95360.46;106764;1274;22564;-70
2023/06/03 01:53:31;;;;;;;11.40;6.50;;;;;;;12.73;86.65;95362.33;106656;1274;22598;-70
2023/06/03 01:56:00;;;;;;;9.80;6.10;;;;;;;12.73;86.94;95370.11;106740;1274;25223;-70
2023/06/03 01:58:29;;;;;;;7.70;5.90;;;;;;;12.72;86.69;95369.95;106721;1274;24256;-71
2023/06/03 02:00:57;;;;;;;10.70;6.80;;;;;;;12.70;86.54;95370.90;106770;1274;22771;-70
2023/06/03 02:03:26;;;;;;;8.00;6.40;;;;;;;12.67;86.14;95373.66;106699;1274;25259;-70
2023/06/03 02:05:54;;;;;;;8.70;5.90;;;;;;;12.65;85.98;95378.12;106787;1274;22517;-70
2023/06/03 02:08:23;;;;;;;8.90;6.10;;;;;;;12.63;85.90;95378.54;106780;1274;25389;-70
2023/06/03 02:10:51;;;;;;;9.20;6.70;;;;;;;12.60;85.91;95383.56;106716;1274;24327;-70
2023/06/03 02:13:20;;;;;;;7.00;5.90;;;;;;;12.56;85.35;95386.86;106766;1274;22526;-71
2023/06/03 02:15:48;;;;;;;9.10;6.50;;;;;;;12.42;84.61;95390.08;106655;1274;23285;-70
2023/06/03 02:18:17;;;;;;;10.80;7.00;;;;;;;12.32;85.21;95391.06;106773;1274;22518;-70
2023/06/03 02:20:47;;;;;;;10.40;6.40;;;;;;;12.28;86.02;95393.84;106770;1274;22540;-71
2023/06/03 02:23:15;;;;;;;6.40;5.80;;;;;;;12.28;86.07;95397.71;106722;1274;22647;-70
2023/06/03 02:25:44;;;;;;;8.90;6.00;;;;;;;12.27;86.94;95392.47;106764;1274;22513;-71
2023/06/03 02:28:16;;;;;;;9.70;5.80;;;;;;;12.21;87.22;95395.80;106663;1274;22514;-70
2023/06/03 02:30:44;;;;;;;8.00;6.00;;;;;;;12.16;87.22;95396.48;106705;1274;22545;-70
2023/06/03 02:33:12;;;;;;;8.70;6.10;;;;;;;12.09;87.44;95398.95;106722;1274;22515;-70
2023/06/03 02:35:41;;;;;;;13.60;7.90;;;;;;;12.01;87.08;95405.52;106762;1274;25223;-71
2023/06/03 02:38:09;;;;;;;11.20;7.10;;;;;;;11.92;86.97;95403.65;106762;1274;22530;-71
2023/06/03 02:40:40;;;;;;;7.90;6.10;;;;;;;11.88;86.92;95412.92;106719;1274;22560;-71
2023/06/03 02:43:08;;;;;;;9.80;5.60;;;;;;;11.85;86.85;95412.80;106995;1274;24255;-71
2023/06/03 02:45:36;;;;;;;9.10;5.60;;;;;;;11.81;86.38;95419.95;106685;1272;25487;-70
2023/06/03 02:48:05;;;;;;;8.80;5.70;;;;;;;11.73;86.13;95422.79;106719;1274;22629;-71
2023/06/03 02:50:34;;;;;;;9.70;6.50;;;;;;;11.67;86.33;95429.48;106725;1274;22917;-70
2023/06/03 02:53:02;;;;;;;6.00;4.70;;;;;;;11.65;86.25;95435.87;106705;1274;23871;-70
2023/06/03 02:55:33;;;;;;;7.50;5.00;;;;;;;11.58;86.12;95439.73;106733;1274;24196;-70
2023/06/03 02:58:01;;;;;;;7.20;5.50;;;;;;;11.58;86.76;95438.85;106764;1274;22516;-71
2023/06/03 03:00:30;;;;;;;6.60;4.70;;;;;;;11.62;86.63;95445.64;106713;1274;22688;-70
2023/06/03 03:02:58;;;;;;;9.10;5.30;;;;;;;11.66;86.34;95449.57;106764;1274;22677;-71
2023/06/03 03:05:28;;;;;;;6.40;4.70;;;;;;;11.71;86.29;95450.86;106761;1274;22507;-71
2023/06/03 03:07:58;;;;;;;6.30;5.10;;;;;;;11.70;85.73;95451.95;106738;1263;22635;-70
2023/06/03 03:10:27;;;;;;;8.60;7.00;;;;;;;11.68;85.81;95448.65;106773;1274;24309;-71
2023/06/03 03:12:56;;;;;;;12.40;9.10;;;;;;;11.65;85.87;95452.77;106642;1274;22825;-71
2023/06/03 03:15:24;;;;;;;11.10;7.30;;;;;;;11.66;85.96;95452.56;106604;1274;24398;-70
2023/06/03 03:17:54;;;;;;;8.00;5.80;;;;;;;11.68;86.02;95451.61;106744;1262;22552;-71
2023/06/03 03:20:24;;;;;;;13.10;7.60;;;;;;;11.78;86.66;95452.81;106409;1274;379082;-70
2023/06/03 03:22:53;;;;;;;14.60;8.00;;;;;;;11.91;86.52;95450.73;106568;1274;22522;-71
2023/06/03 03:25:21;;;;;;;9.20;7.60;;;;;;;11.99;86.09;95445.94;106786;1274;22620;-71
2023/06/03 03:27:50;;;;;;;9.20;7.00;;;;;;;12.07;86.15;95450.31;106693;1274;25334;-71
2023/06/03 03:30:19;;;;;;;8.70;6.80;;;;;;;12.14;86.15;95454.19;106837;1274;25396;-71
2023/06/03 03:32:48;;;;;;;10.60;5.70;;;;;;;12.23;86.45;95458.19;106814;1274;24241;-71
2023/06/03 03:35:20;;;;;;;12.80;6.50;;;;;;;12.28;86.66;95461.75;106814;1274;22514;-71
2023/06/03 03:38:01;;;;;;;12.50;6.50;;;;;;;12.36;86.73;95461.14;106778;1274;25465;-70
2023/06/03 03:40:32;;;;;;;9.80;6.10;;;;;;;12.44;86.72;95461.81;106632;1274;22549;-71
2023/06/03 03:43:02;;;;;;;9.70;6.20;;;;;;;12.53;87.08;95466.34;106836;1274;22784;-71
2023/06/03 03:45:38;;;;;;;12.60;6.60;;;;;;;12.64;87.08;95467.63;106811;1274;25481;-69
2023/06/03 03:48:16;;;;;;;12.40;7.10;;;;;;;12.74;87.32;95473.15;106741;1274;22742;-71
2023/06/03 03:50:52;;;;;;;9.40;6.80;;;;;;;12.86;86.76;95473.14;106704;1274;24233;-71
2023/06/03 03:53:30;;;;;;;10.80;6.50;;;;;;;12.96;86.69;95480.80;106747;1274;23881;-71
2023/06/03 03:56:00;;;;;;;10.90;5.70;;;;;;;13.08;86.29;95484.52;106743;1274;24196;-71
2023/06/03 03:58:40;;;;;;;14.40;6.50;;;;;;;13.17;86.09;95482.84;106831;1274;25396;-71
2023/06/03 04:01:23;;;;;;;8.30;5.60;;;;;;;13.26;85.87;95483.98;106666;1274;22508;-71
2023/06/03 04:03:58;;;;;;;12.70;6.20;;;;;;;13.35;85.61;95486.35;106666;1274;24374;-71
2023/06/03 04:06:35;;;;;;;9.30;5.30;;;;;;;13.42;84.93;95486.70;106754;1270;22510;-71
2023/06/03 04:09:04;;;;;;;9.10;6.10;;;;;;;13.43;84.50;95488.95;106714;1274;22520;-71
2023/06/03 04:11:42;;;;;;;10.50;4.90;;;;;;;13.45;84.10;95486.41;106741;1274;25191;-71
2023/06/03 04:14:14;;;;;;;13.70;6.60;;;;;;;13.47;83.83;95486.16;106743;1274;25214;-71
2023/06/03 04:16:57;;;;;;;10.20;5.60;;;;;;;13.55;84.07;95491.22;106807;1274;22517;-70
2023/06/03 04:19:36;;;;;;;12.10;5.90;;;;;;;13.61;83.54;95486.42;106768;1274;24382;-71
2023/06/03 04:22:20;;;;;;;8.80;5.10;;;;;;;13.68;83.15;95481.78;106709;1274;22779;-71
2023/06/03 04:25:09;;;;;;;9.80;5.80;;;;;;;13.72;82.54;95489.96;106687;1274;22521;-71
2023/06/03 04:27:48;;;;;;;8.00;5.60;;;;;;;13.77;82.69;95488.58;106956;1274;22727;-71
2023/06/03 04:30:17;;;;;;;9.10;5.40;;;;;;;13.86;82.56;95490.41;106797;1274;22630;-72
2023/06/03 04:32:45;;;;;;;7.30;5.50;;;;;;;13.95;81.94;95491.50;106775;1274;22524;-71
2023/06/03 04:35:14;;;;;;;7.90;5.60;;;;;;;13.94;80.41;95493.31;106734;1274;24268;-71
2023/06/03 04:37:43;;;;;;;9.00;5.40;;;;;;;13.96;80.98;95492.53;106789;1274;22517;-71
2023/06/03 04:40:15;;;;;;;11.40;5.80;;;;;;;14.05;80.89;95496.11;106778;1274;22992;-71
2023/06/03 04:42:46;;;;;;;10.20;5.30;;;;;;;14.13;80.30;95501.33;106700;1274;22524;-70
2023/06/03 04:45:15;;;;;;;17.10;6.50;;;;;;;14.15;80.17;95504.27;106715;1274;24361;-71
2023/06/03 04:47:43;;;;;;;9.10;5.80;;;;;;;14.15;78.86;95509.91;106687;1274;23148;-71
2023/06/03 04:50:19;;;;;;;8.10;5.30;;;;;;;14.15;79.13;95515.23;106753;1274;22545;-71
2023/06/03 04:52:48;;;;;;;7.10;5.30;;;;;;;14.21;78.85;95514.85;106659;1274;22517;-71
2023/06/03 04:55:17;;;;;;;14.40;5.70;;;;;;;14.28;78.81;95521.34;106688;1274;22513;-71
2023/06/03 04:57:50;;;;;;;7.70;4.90;;;;;;;14.32;77.64;95522.30;106765;1274;22513;-71
2023/06/03 05:00:19;;;;;;;;;;;;;;;14.35;77.50;95528.00;106784;1274;22503;-71
2023/06/03 05:02:55;;;;;;;18.60;11.40;;;;;;;14.39;77.48;95528.56;106732;1274;22670;-71
2023/06/03 05:05:26;;;;;;;15.30;9.90;;;;;;;14.49;77.76;95528.25;106751;1274;25347;-71
2023/06/03 05:07:54;;;;;;;10.00;5.30;;;;;;;14.56;77.35;95536.34;106821;1274;24183;-71
2023/06/03 05:10:23;;;;;;;8.60;5.10;;;;;;;14.64;77.29;95532.70;106717;1274;24238;-70
2023/06/03 05:12:51;;;;;;;7.70;5.10;;;;;;;14.67;75.81;95534.54;106754;1274;22717;-71
2023/06/03 05:15:19;;;;;;;13.90;5.40;;;;;;;14.72;76.15;95534.53;106640;1253;24024;-71
2023/06/03 05:17:47;;;;;;;9.80;5.80;;;;;;;14.75;75.67;95538.16;106695;1273;25385;-71
2023/06/03 05:20:16;;;;;;;9.40;5.70;;;;;;;14.80;76.04;95539.55;106708;1274;22655;-71
2023/06/03 05:22:44;;;;;;;10.40;7.30;;;;;;;14.79;74.66;95547.92;106670;1274;22574;-71
2023/06/03 05:25:13;;;;;;;10.60;5.50;;;;;;;14.72;75.19;95549.04;106756;1274;22782;-71
2023/06/03 05:27:41;;;;;;;6.90;5.60;;;;;;;14.74;75.12;95549.69;106780;1274;25236;-71
2023/06/03 05:30:25;;;;;;;9.60;5.90;;;;;;;14.78;74.97;95555.94;106819;1274;24033;-71
2023/06/03 05:32:53;;;;;;;9.30;5.50;;;;;;;14.81;74.84;95554.58;106712;1274;22526;-70
2023/06/03 05:35:21;;;;;;;8.10;5.20;;;;;;;14.83;74.71;95558.23;106640;1274;22512;-70
2023/06/03 05:37:50;;;;;;;9.50;5.20;;;;;;;14.86;74.69;95558.83;106753;1274;22520;-70
2023/06/03 05:40:18;;;;;;;10.10;5.80;;;;;;;14.89;74.65;95555.16;106626;1274;22630;-70
2023/06/03 05:42:47;;;;;;;8.40;5.20;;;;;;;14.96;74.91;95556.49;106738;1274;25274;-70
2023/06/03 05:45:17;;;;;;;7.40;5.30;;;;;;;15.01;74.39;95558.83;106816;1274;25192;-70
2023/06/03 05:47:45;;;;;;;9.80;5.90;;;;;;;15.07;74.94;95559.31;106773;1274;25465;-70
2023/06/03 05:50:14;;;;;;;10.80;6.40;;;;;;;15.14;74.60;95562.95;106630;1274;22629;-70
2023/06/03 05:52:42;;;;;;;10.10;6.00;;;;;;;15.20;74.32;95560.44;106797;1274;25462;-70
2023/06/03 05:55:12;;;;;;;9.20;6.00;;;;;;;15.24;74.59;95563.11;106685;1274;22520;-70
2023/06/03 05:57:40;;;;;;;12.00;5.70;;;;;;;15.31;74.55;95563.55;106788;1274;22593;-70
2023/06/03 06:00:10;;;;;;;12.70;5.90;;;;;;;15.34;73.88;95565.19;106671;1274;24177;-71
2023/06/03 06:02:41;;;;;;;10.00;6.00;;;;;;;15.36;73.69;95563.54;106746;1274;22508;-70
2023/06/03 06:05:10;;;;;;;8.80;5.70;;;;;;;15.40;73.83;95561.96;106846;1274;22509;-70
2023/06/03 06:07:38;;;;;;;8.40;6.10;;;;;;;15.40;72.97;95560.37;106703;1274;22837;-71
2023/06/03 06:10:07;;;;;;;11.80;6.30;;;;;;;15.42;73.06;95559.40;106773;1274;22603;-70
2023/06/03 06:12:35;;;;;;;9.10;6.00;;;;;;;15.48;73.50;95555.10;106816;1274;22557;-70
2023/06/03 06:15:04;;;;;;;9.10;5.30;;;;;;;15.57;73.63;95553.70;106642;1274;24427;-70
2023/06/03 06:17:33;;;;;;;9.10;5.60;;;;;;;15.68;73.73;95549.76;106709;1274;23880;-71
2023/06/03 06:20:06;;;;;;;9.00;5.00;;;;;;;15.81;73.68;95552.59;106742;1274;25284;-71
2023/06/03 06:22:34;;;;;;;7.70;4.70;;;;;;;15.94;73.62;95551.90;106695;1274;22529;-70
2023/06/03 06:25:05;;;;;;;6.90;4.60;;;;;;;16.07;73.18;95551.77;106822;1274;22736;-71
2023/06/03 06:27:35;;;;;;;9.60;5.00;;;;;;;16.16;72.91;95548.70;106649;1274;23016;-71
2023/06/03 06:30:03;;;;;;;7.70;4.40;;;;;;;16.30;73.49;95552.40;106833;1274;22456;-70
2023/06/03 06:32:45;;;;;;;6.10;4.50;;;;;;;16.44;73.25;95552.86;106683;1274;22521;-71
2023/06/03 06:35:15;;;;;;;8.40;4.40;;;;;;;16.57;72.81;95551.42;106594;1274;22640;-70
2023/06/03 06:37:43;;;;;;;7.50;4.70;;;;;;;16.67;71.85;95551.34;106776;1274;22898;-71
2023/06/03 06:40:20;;;;;;;6.40;4.50;;;;;;;16.76;72.07;95553.11;106718;1274;24696;-71
2023/06/03 06:42:49;;;;;;;6.90;4.40;;;;;;;16.88;71.91;95554.77;106647;1274;22526;-71
2023/06/03 06:45:26;;;;;;;8.10;4.50;;;;;;;16.96;71.58;95558.66;106757;1274;25302;-71
2023/06/03 06:48:03;;;;;;;10.80;4.80;;;;;;;17.06;71.54;95557.15;106718;1274;22528;-70
2023/06/03 06:50:51;;;;;;;8.20;5.50;;;;;;;17.18;70.88;95558.19;106678;1274;22527;-71
2023/06/03 06:53:24;;;;;;;9.30;5.30;;;;;;;17.22;70.36;95563.17;106728;1274;22524;-71
2023/06/03 06:55:56;;;;;;;8.20;5.20;;;;;;;17.20;70.14;95562.75;106772;1274;22699;-71
2023/06/03 06:58:37;;;;;;;7.50;5.40;;;;;;;17.20;70.37;95565.24;106715;1274;22620;-71
2023/06/03 07:01:10;;;;;;;6.60;4.50;;;;;;;17.23;70.28;95562.25;106643;1274;25389;-71
2023/06/03 07:03:48;;;;;;;8.20;5.30;;;;;;;17.26;69.66;95565.83;106685;1274;25465;-71
2023/06/03 07:06:16;;;;;;;7.30;5.60;;;;;;;17.33;70.29;95567.14;106794;1263;25395;-71
2023/06/03 07:08:45;;;;;;;10.50;5.60;;;;;;;17.45;69.44;95566.39;106840;1274;22504;-71
2023/06/03 07:11:14;;;;;;;10.70;5.40;;;;;;;17.53;68.34;95572.61;106789;1274;22552;-71
2023/06/03 07:13:50;;;;;;;7.00;4.80;;;;;;;17.60;68.53;95573.02;106822;1274;22514;-71
2023/06/03 07:16:19;;;;;;;7.80;5.20;;;;;;;17.71;67.78;95573.38;106778;1274;24228;-70
2023/06/03 07:18:50;;;;;;;10.00;5.10;;;;;;;17.85;67.77;95575.94;106808;1274;22772;-70
2023/06/03 07:21:23;;;;;;;8.10;5.20;;;;;;;17.96;66.60;95576.48;106675;1273;22575;-71
2023/06/03 07:23:52;;;;;;;8.90;4.70;;;;;;;17.97;66.20;95580.72;106703;1274;22517;-70
2023/06/03 07:26:23;;;;;;;11.10;5.00;;;;;;;17.92;66.25;95584.33;106727;1274;22865;-71
2023/06/03 07:28:52;;;;;;;10.60;5.50;;;;;;;17.89;66.53;95582.36;106732;1274;22542;-71
2023/06/03 07:31:20;;;;;;;7.70;5.30;;;;;;;17.85;66.73;95581.48;106723;1274;25334;-70
2023/06/03 07:33:52;;;;;;;8.80;5.20;;;;;;;17.95;67.52;95578.48;106735;1274;23867;-71
2023/06/03 07:36:26;;;;;;;9.50;5.00;;;;;;;18.01;66.61;95580.71;106785;1274;22527;-71
2023/06/03 07:39:03;;;;;;;7.40;4.60;;;;;;;17.94;66.94;95578.36;106674;1274;22521;-71
2023/06/03 07:41:43;;;;;;;7.50;4.90;;;;;;;18.11;67.53;95575.77;106656;1274;23909;-71
2023/06/03 07:44:44;;;;;;;9.10;4.70;;;;;;;18.26;66.40;95574.86;106724;1274;22514;-71
2023/06/03 07:47:14;;;;;;;7.40;4.70;;;;;;;18.32;65.80;95572.06;106755;1274;26640;-70
2023/06/03 07:49:47;;;;;;;9.80;5.30;;;;;;;18.43;66.61;95568.33;106770;1274;22585;-70
2023/06/03 07:52:19;;;;;;;;;;;;;;;18.62;66.81;95568.09;106786;1274;25369;-71
2023/06/03 07:54:49;;;;;;;7.30;4.90;;;;;;;18.74;65.61;95571.58;106812;1274;24519;-71
2023/06/03 07:57:17;;;;;;;7.30;4.70;;;;;;;18.86;66.16;95569.41;106796;1274;22514;-71
2023/06/03 07:59:54;;;;;;;9.00;4.90;;;;;;;18.98;66.01;95568.08;106764;1274;22513;-72
2023/06/03 08:02:22;;;;;;;7.00;4.80;;;;;;;19.10;66.42;95570.10;106771;1274;24062;-70
2023/06/03 08:04:55;;;;;;;5.70;5.00;;;;;;;19.24;66.06;95571.48;106745;1274;25236;-71
2023/06/03 08:07:25;;;;;;;8.00;4.70;;;;;;;19.40;64.35;95569.90;106736;1274;25563;-71
2023/06/03 08:09:55;;;;;;;8.20;5.30;;;;;;;19.34;62.77;95568.14;106800;1274;25334;-71
2023/06/03 08:12:33;;;;;;;5.90;4.40;;;;;;;19.43;63.97;95566.55;106805;1274;25493;-71
2023/06/03 08:15:03;;;;;;;6.80;5.20;;;;;;;19.68;63.89;95563.45;106825;1274;22521;-70
2023/06/03 08:17:40;;;;;;;7.50;4.90;;;;;;;19.95;63.88;95564.44;106809;1274;22521;-71
2023/06/03 08:20:10;;;;;;;7.50;5.20;;;;;;;20.17;63.33;95566.44;106820;1274;24416;-71
2023/06/03 08:22:38;;;;;;;9.00;5.40;;;;;;;20.18;61.64;95567.64;106845;1274;22532;-71
2023/06/03 08:25:08;;;;;;;5.70;5.00;;;;;;;20.04;60.74;95563.04;106721;1274;25339;-71
2023/06/03 08:27:37;;;;;;;9.50;5.50;;;;;;;20.05;61.62;95565.69;106732;1274;22518;-71
2023/06/03 08:30:07;;;;;;;6.90;4.90;;;;;;;20.19;62.24;95566.83;106757;1274;22576;-71
2023/06/03 08:32:38;;;;;;;7.30;4.70;;;;;;;20.42;61.99;95567.87;106744;1274;22515;-71
2023/06/03 08:35:09;;;;;;;8.20;5.30;;;;;;;20.61;60.88;95568.05;106656;1274;22518;-70
2023/06/03 08:37:37;;;;;;;7.90;4.60;;;;;;;20.81;60.56;95570.96;106782;1274;24377;-71
2023/06/03 08:40:13;;;;;;;10.00;4.80;;;;;;;21.12;60.69;95569.13;106778;1274;22516;-71
2023/06/03 08:42:47;;;;;;;6.90;5.00;;;;;;;21.45;60.23;95570.14;106805;1274;25269;-71
2023/06/03 08:45:17;;;;;;;9.70;5.70;;;;;;;21.65;59.72;95572.35;106756;1274;25325;-69
2023/06/03 08:48:06;;;;;;;9.20;5.30;;;;;;;21.67;58.58;95567.58;106768;1274;25500;-69
2023/06/03 08:50:36;;;;;;;5.50;4.90;;;;;;;21.53;59.05;95573.23;106772;1274;22517;-68
2023/06/03 08:53:11;;;;;;;8.30;5.20;;;;;;;21.32;58.17;95574.19;106709;1274;22568;-70
2023/06/03 08:55:41;;;;;;;7.00;4.90;;;;;;;21.11;58.16;95570.23;106634;1274;22768;-71
2023/06/03 08:58:19;;;;;;;8.40;5.00;;;;;;;20.89;58.88;95573.53;106795;1274;24349;-70
2023/06/03 09:00:55;;;;;;;7.40;5.00;;;;;;;20.88;59.54;95576.27;106745;1274;22666;-69
2023/06/03 09:03:25;;;;;;;6.20;4.90;;;;;;;20.89;58.96;95574.45;106757;1274;22514;-68
2023/06/03 09:05:54;;;;;;;9.70;5.10;;;;;;;20.82;59.66;95578.06;106806;1274;24510;-70
2023/06/03 09:08:23;;;;;;;5.60;4.50;;;;;;;20.80;60.09;95577.50;106732;1274;24298;-71
2023/06/03 09:10:52;;;;;;;8.80;5.20;;;;;;;20.79;59.98;95577.38;106816;1274;25339;-70
2023/06/03 09:13:22;;;;;;;10.10;4.70;;;;;;;20.79;60.55;95580.58;106820;1267;22533;-71
2023/06/03 09:15:51;;;;;;;6.90;5.00;;;;;;;20.81;60.20;95580.98;106794;1274;23873;-71
2023/06/03 09:18:19;;;;;;;9.60;5.10;;;;;;;20.81;60.80;95584.54;106776;1263;26490;-70
2023/06/03 09:20:47;;;;;;;5.90;5.10;;;;;;;20.85;61.02;95582.38;106656;1274;22552;-70
2023/06/03 09:23:17;;;;;;;7.00;4.90;;;;;;;20.92;60.42;95583.36;106754;1274;24734;-70
2023/06/03 09:25:45;;;;;;;6.20;4.50;;;;;;;20.95;60.54;95585.71;106767;1274;22521;-70
2023/06/03 09:28:15;;;;;;;6.60;4.90;;;;;;;20.87;59.76;95582.04;106802;1274;22513;-71
2023/06/03 09:30:45;;;;;;;5.60;4.50;;;;;;;20.79;59.90;95581.27;106746;1274;24513;-70
2023/06/03 09:33:15;;;;;;;6.60;5.20;;;;;;;20.75;60.24;95582.38;106818;1274;25392;-70
2023/06/03 09:36:03;;;;;;;8.50;4.90;;;;;;;20.76;59.88;95583.21;106817;1274;25628;-70
2023/06/03 09:38:50;;;;;;;10.60;5.00;;;;;;;20.72;60.00;95586.70;106635;1274;22539;-70
2023/06/03 09:41:21;;;;;;;8.50;4.60;;;;;;;20.71;60.18;95589.07;106771;1274;22521;-71
2023/06/03 09:44:05;;;;;;;9.10;5.00;;;;;;;20.77;61.00;95586.38;106724;1274;24220;-70
2023/06/03 09:46:34;;;;;;;6.90;4.70;;;;;;;20.83;60.70;95586.77;106864;1251;25213;-69
2023/06/03 09:49:13;;;;;;;8.00;4.90;;;;;;;20.78;59.14;95589.20;106783;1274;24824;-68
2023/06/03 09:51:52;;;;;;;7.10;5.50;;;;;;;20.68;60.14;95589.08;106720;1267;22516;-69
2023/06/03 09:54:25;;;;;;;7.50;4.60;;;;;;;20.65;60.23;95591.21;106833;1274;24417;-70
2023/06/03 09:56:53;;;;;;;8.00;4.30;;;;;;;20.56;59.65;95593.17;106751;1274;24323;-71
2023/06/03 09:59:25;;;;;;;6.20;4.70;;;;;;;20.50;60.38;95596.66;106763;1274;25334;-70
2023/06/03 10:01:54;;;;;;;5.70;5.10;;;;;;;20.63;61.48;95595.27;106792;1274;22675;-70
2023/06/03 10:04:44;;;;;;;7.00;4.60;;;;;;;20.80;61.18;95595.69;106760;1274;24194;-70
2023/06/03 10:07:16;;;;;;;7.70;5.00;;;;;;;20.89;60.43;95595.88;106727;1274;22521;-70
2023/06/03 10:09:46;;;;;;;16.90;5.40;;;;;;;20.81;59.11;95601.72;106802;1274;25306;-70
2023/06/03 10:12:28;;;;;;;9.70;5.00;;;;;;;20.68;60.07;95598.52;106728;1257;22518;-70
2023/06/03 10:14:59;;;;;;;7.10;4.70;;;;;;;20.69;60.60;95598.29;106706;1274;24241;-70
2023/06/03 10:17:28;;;;;;;7.60;4.40;;;;;;;20.76;61.22;95600.38;106780;1274;22520;-70
2023/06/03 10:19:56;;;;;;;6.30;5.00;;;;;;;20.84;61.17;95601.37;106768;1274;24373;-71
2023/06/03 10:22:26;;;;;;;5.70;5.00;;;;;;;20.90;61.05;95602.44;106797;1274;22765;-70
2023/06/03 10:24:57;;;;;;;5.10;4.60;;;;;;;21.04;60.61;95595.92;106823;1274;24220;-71
2023/06/03 10:27:26;;;;;;;6.60;4.70;;;;;;;21.17;59.22;95594.23;106809;1274;26513;-68
2023/06/03 10:29:55;;;;;;;8.20;4.80;;;;;;;21.32;59.78;95593.31;106779;1274;25521;-69
2023/06/03 10:32:23;;;;;;;7.40;5.40;;;;;;;21.55;59.05;95594.58;106722;1274;22511;-68
2023/06/03 10:34:54;;;;;;;5.90;4.90;;;;;;;21.58;58.48;95590.66;106772;1274;23909;-70
2023/06/03 10:37:24;;;;;;;6.20;4.60;;;;;;;21.61;58.13;95589.92;106804;1274;24287;-69
2023/06/03 10:39:54;;;;;;;7.00;4.80;;;;;;;21.63;57.85;95593.59;106792;1274;22561;-69
2023/06/03 10:42:23;;;;;;;8.20;4.90;;;;;;;21.61;57.12;95592.44;106806;1274;22632;-69
2023/06/03 10:44:51;;;;;;;7.50;4.80;;;;;;;21.64;57.01;95593.33;106783;1274;24270;-69
2023/06/03 10:47:30;;;;;;;5.50;4.80;;;;;;;21.73;57.76;95590.27;106811;1274;22527;-69
2023/06/03 10:50:11;;;;;;;5.60;5.00;;;;;;;21.99;57.79;95589.69;106842;1274;22518;-69
2023/06/03 10:53:06;;;;;;;9.10;5.00;;;;;;;22.03;57.14;95582.26;106800;1274;22544;-70
2023/06/03 10:55:43;;;;;;;7.10;4.50;;;;;;;22.11;57.03;95586.96;106454;1274;22571;-69
2023/06/03 10:58:30;;;;;;;5.40;4.90;;;;;;;22.10;57.58;95589.52;106781;1274;24380;-69
2023/06/03 11:01:04;;;;;;;9.40;4.70;;;;;;;22.07;58.15;95588.66;106801;1274;22639;-69
2023/06/03 11:03:53;;;;;;;8.90;4.90;;;;;;;21.94;56.95;95590.92;106706;1274;22685;-69
2023/06/03 11:06:21;;;;;;;6.80;4.80;;;;;;;21.75;56.74;95587.60;106742;1274;25385;-70
2023/06/03 11:09:08;;;;;;;10.90;4.80;;;;;;;21.75;57.31;95584.40;106777;1274;22515;-69
2023/06/03 11:11:40;;;;;;;6.00;5.10;;;;;;;21.71;56.93;95578.41;106782;1274;25316;-70
2023/06/03 11:14:12;;;;;;;5.70;4.60;;;;;;;21.69;58.09;95583.52;106735;1274;26684;-69
2023/06/03 11:16:58;;;;;;;7.00;5.10;;;;;;;21.75;57.74;95577.81;106811;1273;24215;-69
2023/06/03 11:19:34;;;;;;;6.20;4.90;;;;;;;21.88;57.69;95580.35;106746;1274;25647;-69
2023/06/03 11:22:09;;;;;;;7.50;5.40;;;;;;;22.02;56.68;95577.88;106814;1274;22671;-69
2023/06/03 11:24:37;;;;;;;6.10;5.40;;;;;;;21.97;57.58;95579.28;106801;1274;25622;-70
2023/06/03 11:27:09;;;;;;;6.60;5.60;;;;;;;22.01;57.57;95583.10;106764;1274;22528;-69
2023/06/03 11:29:44;;;;;;;8.00;5.40;;;;;;;21.91;56.73;95586.44;106786;1274;24096;-69
2023/06/03 11:32:13;;;;;;;8.40;5.50;;;;;;;21.78;56.36;95583.86;106735;1274;23062;-69
2023/06/03 11:34:47;;;;;;;7.00;5.50;;;;;;;21.69;57.53;95591.95;106791;1274;26509;-69
2023/06/03 11:37:19;;;;;;;7.40;5.60;;;;;;;21.69;57.16;95588.00;106849;1274;25477;-69
2023/06/03 11:40:05;;;;;;;;;;;;;;;21.70;57.00;95592.38;106796;1274;22503;-69
2023/06/03 11:42:49;;;;;;;7.60;5.20;;;;;;;21.59;55.27;95590.25;106743;1275;22518;-70
2023/06/03 11:45:20;;;;;;;7.30;5.50;;;;;;;21.59;56.38;95585.05;106734;1274;24336;-70